sensor_id;sensor_type;location;lat;lon;timestamp;pressure;altitude;pressure_sealevel;temperature;humidity
70559;BME280;58108;48.094;11.838;2022-11-18T00:00:49;93802.72;;;6.08;100.00
70559;BME280;58108;48.094;11.838;2022-11-18T00:03:15;93802.19;;;6.14;100.00
70559;BME280;58108;48.094;11.838;2022-11-18T00:05:40;93803.00;;;6.14;100.00
70559;BME280;58108;48.094;11.838;2022-11-18T00:08:06;93792.75;;;6.23;100.00
70559;BME280;58108;48.094;11.838;2022-11-18T00:10:31;93793.16;;;6.18;100.00
70559;BME280;58108;48.094;11.838;2022-11-18T00:12:56;93786.72;;;6.12;100.00
70559;BME280;58108;48.094;11.838;2022-11-18T00:15:40;93771.97;;;6.23;100.00
70559;BME280;58108;48.094;11.838;2022-11-18T00:18:05;93777.69;;;6.17;100.00
70559;BME280;58108;48.094;11.838;2022-11-18T00:20:32;93774.97;;;6.18;100.00
70559;BME280;58108;48.094;11.838;2022-11-18T00:22:57;93768.66;;;6.21;100.00
70559;BME280;58108;48.094;11.838;2022-11-18T00:25:23;93763.63;;;6.19;100.00
70559;BME280;58108;48.094;11.838;2022-11-18T00:27:48;93758.69;;;6.26;100.00
70559;BME280;58108;48.094;11.838;2022-11-18T00:30:13;93760.59;;;6.24;100.00
70559;BME280;58108;48.094;11.838;2022-11-18T00:32:38;93756.78;;;6.18;100.00
70559;BME280;58108;48.094;11.838;2022-11-18T00:35:04;93758.13;;;6.12;100.00
70559;BME280;58108;48.094;11.838;2022-11-18T00:37:29;93747.31;;;6.17;100.00
70559;BME280;58108;48.094;11.838;2022-11-18T00:39:55;93753.63;;;6.14;100.00
70559;BME280;58108;48.094;11.838;2022-11-18T00:42:20;93758.13;;;6.12;100.00
70559;BME280;58108;48.094;11.838;2022-11-18T00:45:04;93753.75;;;6.13;100.00
70559;BME280;58108;48.094;11.838;2022-11-18T00:47:30;93754.44;;;6.15;100.00
70559;BME280;58108;48.094;11.838;2022-11-18T00:49:55;93752.69;;;6.15;100.00
70559;BME280;58108;48.094;11.838;2022-11-18T00:52:20;93749.78;;;6.09;100.00
70559;BME280;58108;48.094;11.838;2022-11-18T00:54:45;93743.06;;;6.06;100.00
70559;BME280;58108;48.094;11.838;2022-11-18T00:57:11;93746.66;;;6.15;100.00
70559;BME280;58108;48.094;11.838;2022-11-18T00:59:37;93742.28;;;6.15;100.00
70559;BME280;58108;48.094;11.838;2022-11-18T01:02:02;93731.59;;;5.99;100.00
70559;BME280;58108;48.094;11.838;2022-11-18T01:04:27;93740.06;;;6.01;100.00
70559;BME280;58108;48.094;11.838;2022-11-18T01:06:53;93730.88;;;5.87;100.00
70559;BME280;58108;48.094;11.838;2022-11-18T01:09:18;93721.19;;;5.89;100.00
70559;BME280;58108;48.094;11.838;2022-11-18T01:11:43;93721.31;;;5.78;100.00
70559;BME280;58108;48.094;11.838;2022-11-18T01:14:44;93734.69;;;5.73;100.00
70559;BME280;58108;48.094;11.838;2022-11-18T01:17:09;93725.97;;;5.84;100.00
70559;BME280;58108;48.094;11.838;2022-11-18T01:19:34;93723.63;;;5.91;100.00
70559;BME280;58108;48.094;11.838;2022-11-18T01:22:00;93725.13;;;5.93;100.00
70559;BME280;58108;48.094;11.838;2022-11-18T01:24:32;93724.88;;;6.06;100.00
70559;BME280;58108;48.094;11.838;2022-11-18T01:26:59;93719.25;;;5.71;100.00
70559;BME280;58108;48.094;11.838;2022-11-18T01:29:25;93720.31;;;5.69;100.00
70559;BME280;58108;48.094;11.838;2022-11-18T01:31:50;93709.81;;;5.80;100.00
70559;BME280;58108;48.094;11.838;2022-11-18T01:34:16;93714.75;;;5.83;100.00
70559;BME280;58108;48.094;11.838;2022-11-18T01:36:41;93706.94;;;5.93;100.00
70559;BME280;58108;48.094;11.838;2022-11-18T01:39:06;93713.25;;;6.00;100.00
70559;BME280;58108;48.094;11.838;2022-11-18T01:41:32;93705.88;;;5.96;100.00
70559;BME280;58108;48.094;11.838;2022-11-18T01:44:00;93696.59;;;6.03;100.00
70559;BME280;58108;48.094;11.838;2022-11-18T01:46:27;93693.56;;;5.98;100.00
70559;BME280;58108;48.094;11.838;2022-11-18T01:49:05;93695.22;;;5.89;100.00
70559;BME280;58108;48.094;11.838;2022-11-18T01:51:44;93686.59;;;5.98;100.00
70559;BME280;58108;48.094;11.838;2022-11-18T01:54:22;93684.28;;;5.95;100.00
70559;BME280;58108;48.094;11.838;2022-11-18T01:56:53;93688.66;;;6.05;100.00
70559;BME280;58108;48.094;11.838;2022-11-18T01:59:23;93699.88;;;6.05;100.00
70559;BME280;58108;48.094;11.838;2022-11-18T02:01:50;93700.84;;;6.04;100.00
70559;BME280;58108;48.094;11.838;2022-11-18T02:04:16;93706.56;;;5.88;100.00
70559;BME280;58108;48.094;11.838;2022-11-18T02:06:43;93710.50;;;5.72;100.00
70559;BME280;58108;48.094;11.838;2022-11-18T02:09:09;93712.53;;;5.59;100.00
70559;BME280;58108;48.094;11.838;2022-11-18T02:11:35;93710.19;;;5.46;100.00
70559;BME280;58108;48.094;11.838;2022-11-18T02:14:20;93709.53;;;5.54;100.00
70559;BME280;58108;48.094;11.838;2022-11-18T02:25:05;93716.22;;;5.56;100.00
70559;BME280;58108;48.094;11.838;2022-11-18T02:27:38;93712.25;;;5.52;100.00
70559;BME280;58108;48.094;11.838;2022-11-18T02:30:12;93726.31;;;5.40;100.00
70559;BME280;58108;48.094;11.838;2022-11-18T02:32:44;93726.53;;;5.27;100.00
70559;BME280;58108;48.094;11.838;2022-11-18T02:35:18;93724.66;;;5.39;100.00
70559;BME280;58108;48.094;11.838;2022-11-18T02:38:15;93724.44;;;5.52;100.00
70559;BME280;58108;48.094;11.838;2022-11-18T02:40:46;93726.31;;;5.50;100.00
70559;BME280;58108;48.094;11.838;2022-11-18T02:43:21;93728.09;;;5.49;100.00
70559;BME280;58108;48.094;11.838;2022-11-18T02:45:53;93727.25;;;5.39;100.00
70559;BME280;58108;48.094;11.838;2022-11-18T02:48:23;93725.34;;;5.41;100.00
70559;BME280;58108;48.094;11.838;2022-11-18T02:50:51;93720.88;;;5.63;100.00
70559;BME280;58108;48.094;11.838;2022-11-18T02:53:19;93715.81;;;5.51;100.00
70559;BME280;58108;48.094;11.838;2022-11-18T02:55:45;93718.41;;;5.61;100.00
70559;BME280;58108;48.094;11.838;2022-11-18T02:58:14;93715.13;;;5.49;100.00
70559;BME280;58108;48.094;11.838;2022-11-18T03:00:40;93717.16;;;5.45;100.00
70559;BME280;58108;48.094;11.838;2022-11-18T03:06:12;93713.06;;;5.53;100.00
70559;BME280;58108;48.094;11.838;2022-11-18T03:08:51;93715.56;;;5.54;100.00
70559;BME280;58108;48.094;11.838;2022-11-18T03:11:22;93712.38;;;5.41;100.00
70559;BME280;58108;48.094;11.838;2022-11-18T03:14:22;93707.03;;;5.42;100.00
70559;BME280;58108;48.094;11.838;2022-11-18T03:16:57;93705.00;;;5.46;100.00
70559;BME280;58108;48.094;11.838;2022-11-18T03:19:35;93710.44;;;5.33;100.00
70559;BME280;58108;48.094;11.838;2022-11-18T03:22:32;93707.84;;;5.33;100.00
70559;BME280;58108;48.094;11.838;2022-11-18T03:25:08;93705.44;;;5.71;100.00
70559;BME280;58108;48.094;11.838;2022-11-18T03:30:16;93700.09;;;5.72;100.00
70559;BME280;58108;48.094;11.838;2022-11-18T03:32:55;93704.09;;;5.86;100.00
70559;BME280;58108;48.094;11.838;2022-11-18T03:35:24;93703.00;;;5.89;100.00
70559;BME280;58108;48.094;11.838;2022-11-18T03:38:05;93706.13;;;5.83;100.00
70559;BME280;58108;48.094;11.838;2022-11-18T03:40:32;93715.84;;;5.81;100.00
70559;BME280;58108;48.094;11.838;2022-11-18T03:43:07;93716.78;;;5.80;100.00
70559;BME280;58108;48.094;11.838;2022-11-18T03:45:44;93722.66;;;5.62;100.00
70559;BME280;58108;48.094;11.838;2022-11-18T03:48:15;93726.88;;;5.53;100.00
70559;BME280;58108;48.094;11.838;2022-11-18T03:51:05;93720.03;;;5.52;100.00
70559;BME280;58108;48.094;11.838;2022-11-18T03:53:32;93729.91;;;5.68;100.00
70559;BME280;58108;48.094;11.838;2022-11-18T03:56:05;93738.72;;;5.46;100.00
70559;BME280;58108;48.094;11.838;2022-11-18T03:58:39;93742.44;;;5.43;100.00
70559;BME280;58108;48.094;11.838;2022-11-18T04:01:30;93746.56;;;5.56;100.00
70559;BME280;58108;48.094;11.838;2022-11-18T04:03:58;93745.91;;;5.64;100.00
70559;BME280;58108;48.094;11.838;2022-11-18T04:06:29;93750.97;;;5.75;100.00
70559;BME280;58108;48.094;11.838;2022-11-18T04:09:02;93750.16;;;5.84;100.00
70559;BME280;58108;48.094;11.838;2022-11-18T04:11:34;93758.06;;;5.73;100.00
70559;BME280;58108;48.094;11.838;2022-11-18T04:14:20;93762.00;;;5.57;100.00
70559;BME280;58108;48.094;11.838;2022-11-18T04:16:49;93764.78;;;5.75;100.00
70559;BME280;58108;48.094;11.838;2022-11-18T04:19:15;93768.19;;;5.76;100.00
70559;BME280;58108;48.094;11.838;2022-11-18T04:21:40;93776.81;;;5.86;100.00
70559;BME280;58108;48.094;11.838;2022-11-18T04:24:05;93781.31;;;5.74;100.00
70559;BME280;58108;48.094;11.838;2022-11-18T04:26:31;93791.69;;;5.65;100.00
70559;BME280;58108;48.094;11.838;2022-11-18T04:28:56;93797.78;;;5.54;100.00
70559;BME280;58108;48.094;11.838;2022-11-18T04:31:21;93803.81;;;5.54;100.00
70559;BME280;58108;48.094;11.838;2022-11-18T04:33:47;93802.34;;;5.61;100.00
70559;BME280;58108;48.094;11.838;2022-11-18T04:36:12;93796.59;;;5.58;100.00
70559;BME280;58108;48.094;11.838;2022-11-18T04:38:37;93790.69;;;5.56;100.00
70559;BME280;58108;48.094;11.838;2022-11-18T04:41:02;93790.03;;;5.64;100.00
70559;BME280;58108;48.094;11.838;2022-11-18T04:43:28;93791.41;;;5.58;100.00
70559;BME280;58108;48.094;11.838;2022-11-18T04:45:53;93782.38;;;5.62;100.00
70559;BME280;58108;48.094;11.838;2022-11-18T04:48:18;93786.19;;;5.68;100.00
70559;BME280;58108;48.094;11.838;2022-11-18T04:50:44;93787.44;;;5.64;100.00
70559;BME280;58108;48.094;11.838;2022-11-18T04:53:09;93784.53;;;5.57;100.00
70559;BME280;58108;48.094;11.838;2022-11-18T04:55:35;93779.34;;;5.57;100.00
70559;BME280;58108;48.094;11.838;2022-11-18T04:58:01;93781.81;;;5.58;100.00
70559;BME280;58108;48.094;11.838;2022-11-18T05:00:26;93776.66;;;5.68;100.00
70559;BME280;58108;48.094;11.838;2022-11-18T05:02:51;93780.19;;;5.57;100.00
70559;BME280;58108;48.094;11.838;2022-11-18T05:05:17;93767.47;;;5.64;100.00
70559;BME280;58108;48.094;11.838;2022-11-18T05:07:42;93771.19;;;5.71;100.00
70559;BME280;58108;48.094;11.838;2022-11-18T05:10:07;93773.22;;;5.68;100.00
70559;BME280;58108;48.094;11.838;2022-11-18T05:12:33;93768.88;;;5.68;100.00
70559;BME280;58108;48.094;11.838;2022-11-18T05:15:20;93761.75;;;5.70;100.00
70559;BME280;58108;48.094;11.838;2022-11-18T05:17:48;93768.97;;;5.57;100.00
70559;BME280;58108;48.094;11.838;2022-11-18T05:20:13;93763.75;;;5.57;100.00
70559;BME280;58108;48.094;11.838;2022-11-18T05:22:39;93760.50;;;5.55;100.00
70559;BME280;58108;48.094;11.838;2022-11-18T05:25:05;93767.91;;;5.69;100.00
70559;BME280;58108;48.094;11.838;2022-11-18T05:27:31;93763.53;;;5.80;100.00
70559;BME280;58108;48.094;11.838;2022-11-18T05:29:56;93759.72;;;5.74;100.00
70559;BME280;58108;48.094;11.838;2022-11-18T05:32:21;93763.69;;;5.78;100.00
70559;BME280;58108;48.094;11.838;2022-11-18T05:34:47;93760.78;;;5.61;100.00
70559;BME280;58108;48.094;11.838;2022-11-18T05:37:12;93766.38;;;5.67;100.00
70559;BME280;58108;48.094;11.838;2022-11-18T05:39:37;93766.38;;;5.67;100.00
70559;BME280;58108;48.094;11.838;2022-11-18T05:42:03;93757.78;;;5.66;100.00
70559;BME280;58108;48.094;11.838;2022-11-18T05:44:47;93760.53;;;5.74;100.00
70559;BME280;58108;48.094;11.838;2022-11-18T05:47:14;93762.59;;;5.71;100.00
70559;BME280;58108;48.094;11.838;2022-11-18T05:49:39;93763.94;;;5.75;100.00
70559;BME280;58108;48.094;11.838;2022-11-18T05:52:04;93767.09;;;5.79;100.00
70559;BME280;58108;48.094;11.838;2022-11-18T05:54:30;93773.25;;;5.78;100.00
70559;BME280;58108;48.094;11.838;2022-11-18T05:56:55;93774.47;;;5.73;100.00
70559;BME280;58108;48.094;11.838;2022-11-18T05:59:21;93777.22;;;5.72;100.00
70559;BME280;58108;48.094;11.838;2022-11-18T06:02:31;93777.63;;;5.77;100.00
70559;BME280;58108;48.094;11.838;2022-11-18T06:04:48;93781.97;;;5.67;100.00
70559;BME280;58108;48.094;11.838;2022-11-18T06:07:19;93776.94;;;5.75;100.00
70559;BME280;58108;48.094;11.838;2022-11-18T06:09:49;93775.56;;;5.71;100.00
70559;BME280;58108;48.094;11.838;2022-11-18T06:12:19;93781.03;;;5.78;100.00
70559;BME280;58108;48.094;11.838;2022-11-18T06:14:59;93782.25;;;5.64;100.00
70559;BME280;58108;48.094;11.838;2022-11-18T06:17:32;93785.09;;;5.60;100.00
70559;BME280;58108;48.094;11.838;2022-11-18T06:19:58;93784.13;;;5.52;100.00
70559;BME280;58108;48.094;11.838;2022-11-18T06:22:24;93788.81;;;5.68;100.00
70559;BME280;58108;48.094;11.838;2022-11-18T06:24:50;93789.59;;;5.58;100.00
70559;BME280;58108;48.094;11.838;2022-11-18T06:27:15;93786.56;;;5.53;100.00
70559;BME280;58108;48.094;11.838;2022-11-18T06:29:41;93796.34;;;5.71;100.00
70559;BME280;58108;48.094;11.838;2022-11-18T06:32:06;93797.94;;;5.62;100.00
70559;BME280;58108;48.094;11.838;2022-11-18T06:34:32;93807.34;;;5.53;100.00
70559;BME280;58108;48.094;11.838;2022-11-18T06:36:57;93805.69;;;5.52;100.00
70559;BME280;58108;48.094;11.838;2022-11-18T06:39:22;93807.09;;;5.56;100.00
70559;BME280;58108;48.094;11.838;2022-11-18T06:41:48;93811.06;;;5.51;100.00
70559;BME280;58108;48.094;11.838;2022-11-18T06:44:13;93816.97;;;5.72;100.00
70559;BME280;58108;48.094;11.838;2022-11-18T06:46:38;93818.69;;;5.52;100.00
70559;BME280;58108;48.094;11.838;2022-11-18T06:49:23;93818.16;;;5.58;100.00
70559;BME280;58108;48.094;11.838;2022-11-18T06:51:49;93826.06;;;5.57;100.00
70559;BME280;58108;48.094;11.838;2022-11-18T06:54:14;93830.19;;;5.59;100.00
70559;BME280;58108;48.094;11.838;2022-11-18T06:56:39;93835.53;;;5.68;100.00
70559;BME280;58108;48.094;11.838;2022-11-18T06:59:05;93843.88;;;5.61;100.00
70559;BME280;58108;48.094;11.838;2022-11-18T07:01:33;93848.97;;;5.73;100.00
70559;BME280;58108;48.094;11.838;2022-11-18T07:03:59;93850.72;;;5.72;100.00
70559;BME280;58108;48.094;11.838;2022-11-18T07:06:27;93852.13;;;5.77;100.00
70559;BME280;58108;48.094;11.838;2022-11-18T07:08:53;93857.19;;;5.78;100.00
70559;BME280;58108;48.094;11.838;2022-11-18T07:11:21;93853.19;;;5.74;100.00
70559;BME280;58108;48.094;11.838;2022-11-18T07:13:46;93850.91;;;5.81;100.00
70559;BME280;58108;48.094;11.838;2022-11-18T07:16:18;93853.91;;;5.86;100.00
70559;BME280;58108;48.094;11.838;2022-11-18T07:18:44;93861.66;;;5.76;100.00
70559;BME280;58108;48.094;11.838;2022-11-18T07:21:15;93868.81;;;5.84;100.00
70559;BME280;58108;48.094;11.838;2022-11-18T07:23:41;93870.47;;;5.85;100.00
70559;BME280;58108;48.094;11.838;2022-11-18T07:26:07;93871.53;;;5.82;100.00
70559;BME280;58108;48.094;11.838;2022-11-18T07:28:33;93869.78;;;5.83;100.00
70559;BME280;58108;48.094;11.838;2022-11-18T07:31:02;93879.13;;;5.95;100.00
70559;BME280;58108;48.094;11.838;2022-11-18T07:33:31;93874.28;;;5.91;100.00
70559;BME280;58108;48.094;11.838;2022-11-18T07:36:05;93885.53;;;5.91;100.00
70559;BME280;58108;48.094;11.838;2022-11-18T07:38:31;93890.44;;;5.94;100.00
70559;BME280;58108;48.094;11.838;2022-11-18T07:41:07;93882.81;;;5.93;100.00
70559;BME280;58108;48.094;11.838;2022-11-18T07:43:34;93882.97;;;6.01;100.00
70559;BME280;58108;48.094;11.838;2022-11-18T07:48:37;93885.97;;;5.96;100.00
70559;BME280;58108;48.094;11.838;2022-11-18T07:51:02;93878.72;;;6.00;100.00
70559;BME280;58108;48.094;11.838;2022-11-18T07:53:31;93896.66;;;6.03;100.00
70559;BME280;58108;48.094;11.838;2022-11-18T07:55:57;93896.25;;;6.08;100.00
70559;BME280;58108;48.094;11.838;2022-11-18T07:58:22;93887.66;;;6.07;100.00
70559;BME280;58108;48.094;11.838;2022-11-18T08:00:47;93898.78;;;5.98;100.00
70559;BME280;58108;48.094;11.838;2022-11-18T08:03:13;93903.38;;;6.06;100.00
70559;BME280;58108;48.094;11.838;2022-11-18T08:05:38;93902.53;;;6.05;100.00
70559;BME280;58108;48.094;11.838;2022-11-18T08:08:03;93906.53;;;6.09;100.00
70559;BME280;58108;48.094;11.838;2022-11-18T08:10:29;93903.41;;;6.15;100.00
70559;BME280;58108;48.094;11.838;2022-11-18T08:12:55;93903.69;;;6.22;100.00
70559;BME280;58108;48.094;11.838;2022-11-18T08:15:21;93911.50;;;6.32;100.00
70559;BME280;58108;48.094;11.838;2022-11-18T08:17:46;93910.00;;;6.29;100.00
70559;BME280;58108;48.094;11.838;2022-11-18T08:20:12;93915.31;;;6.28;100.00
70559;BME280;58108;48.094;11.838;2022-11-18T08:22:37;93905.63;;;6.30;100.00
70559;BME280;58108;48.094;11.838;2022-11-18T08:25:03;93912.19;;;6.34;100.00
70559;BME280;58108;48.094;11.838;2022-11-18T08:27:30;93913.81;;;6.35;100.00
70559;BME280;58108;48.094;11.838;2022-11-18T08:29:55;93914.41;;;6.49;100.00
70559;BME280;58108;48.094;11.838;2022-11-18T08:32:20;93915.91;;;6.51;100.00
70559;BME280;58108;48.094;11.838;2022-11-18T08:34:46;93915.06;;;6.51;100.00
70559;BME280;58108;48.094;11.838;2022-11-18T08:37:11;93923.44;;;6.45;100.00
70559;BME280;58108;48.094;11.838;2022-11-18T08:39:36;93924.38;;;6.43;100.00
70559;BME280;58108;48.094;11.838;2022-11-18T08:42:02;93925.09;;;6.55;100.00
70559;BME280;58108;48.094;11.838;2022-11-18T08:44:27;93927.13;;;6.42;100.00
70559;BME280;58108;48.094;11.838;2022-11-18T08:46:55;93938.88;;;6.46;100.00
70559;BME280;58108;48.094;11.838;2022-11-18T08:49:20;93948.72;;;6.33;100.00
70559;BME280;58108;48.094;11.838;2022-11-18T08:51:45;93949.09;;;6.28;100.00
70559;BME280;58108;48.094;11.838;2022-11-18T08:54:11;93955.13;;;6.28;100.00
70559;BME280;58108;48.094;11.838;2022-11-18T08:56:36;93961.69;;;6.23;100.00
70559;BME280;58108;48.094;11.838;2022-11-18T08:59:16;93964.81;;;6.17;100.00
70559;BME280;58108;48.094;11.838;2022-11-18T09:01:42;93959.50;;;6.18;100.00
70559;BME280;58108;48.094;11.838;2022-11-18T09:04:08;93960.19;;;6.20;100.00
70559;BME280;58108;48.094;11.838;2022-11-18T09:06:34;93964.66;;;6.08;100.00
70559;BME280;58108;48.094;11.838;2022-11-18T09:09:00;93964.66;;;6.08;100.00
70559;BME280;58108;48.094;11.838;2022-11-18T09:11:26;93968.53;;;6.24;100.00
70559;BME280;58108;48.094;11.838;2022-11-18T09:13:53;93971.38;;;6.21;100.00
70559;BME280;58108;48.094;11.838;2022-11-18T09:16:20;93969.78;;;6.29;100.00
70559;BME280;58108;48.094;11.838;2022-11-18T09:18:47;93975.97;;;6.38;100.00
70559;BME280;58108;48.094;11.838;2022-11-18T09:21:13;93978.66;;;6.27;100.00
70559;BME280;58108;48.094;11.838;2022-11-18T09:23:38;93983.84;;;6.27;100.00
70559;BME280;58108;48.094;11.838;2022-11-18T09:26:06;93987.72;;;6.33;100.00
70559;BME280;58108;48.094;11.838;2022-11-18T09:28:32;93984.94;;;6.24;100.00
70559;BME280;58108;48.094;11.838;2022-11-18T09:31:03;93988.97;;;6.38;100.00
70559;BME280;58108;48.094;11.838;2022-11-18T09:33:29;93993.00;;;6.21;100.00
70559;BME280;58108;48.094;11.838;2022-11-18T09:35:54;93994.88;;;6.09;100.00
70559;BME280;58108;48.094;11.838;2022-11-18T09:38:20;93998.16;;;6.11;100.00
70559;BME280;58108;48.094;11.838;2022-11-18T09:49:02;94000.84;;;6.00;100.00
70559;BME280;58108;48.094;11.838;2022-11-18T09:51:46;94006.47;;;6.05;100.00
70559;BME280;58108;48.094;11.838;2022-11-18T09:54:20;94008.19;;;5.95;100.00
70559;BME280;58108;48.094;11.838;2022-11-18T09:56:46;94012.38;;;5.86;100.00
70559;BME280;58108;48.094;11.838;2022-11-18T09:59:13;94004.25;;;6.00;100.00
70559;BME280;58108;48.094;11.838;2022-11-18T10:01:40;94005.47;;;5.96;100.00
70559;BME280;58108;48.094;11.838;2022-11-18T10:04:12;94009.53;;;6.10;100.00
70559;BME280;58108;48.094;11.838;2022-11-18T10:06:38;94006.66;;;6.13;100.00
70559;BME280;58108;48.094;11.838;2022-11-18T10:09:25;94002.97;;;6.16;100.00
70559;BME280;58108;48.094;11.838;2022-11-18T10:17:50;94022.75;;;5.86;100.00
70559;BME280;58108;48.094;11.838;2022-11-18T10:20:23;94021.31;;;5.72;100.00
70559;BME280;58108;48.094;11.838;2022-11-18T10:23:07;94028.63;;;5.78;100.00
70559;BME280;58108;48.094;11.838;2022-11-18T10:25:36;94023.53;;;5.77;100.00
70559;BME280;58108;48.094;11.838;2022-11-18T10:28:14;94020.88;;;5.67;100.00
70559;BME280;58108;48.094;11.838;2022-11-18T10:30:40;94026.56;;;5.60;100.00
70559;BME280;58108;48.094;11.838;2022-11-18T10:35:47;94010.81;;;5.52;100.00
70559;BME280;58108;48.094;11.838;2022-11-18T10:41:00;94024.69;;;5.63;100.00
70559;BME280;58108;48.094;11.838;2022-11-18T10:43:46;94020.13;;;5.55;100.00
70559;BME280;58108;48.094;11.838;2022-11-18T10:46:33;94022.25;;;5.50;100.00
70559;BME280;58108;48.094;11.838;2022-11-18T10:54:20;94026.63;;;5.70;100.00
70559;BME280;58108;48.094;11.838;2022-11-18T11:02:29;94026.66;;;5.49;100.00
70559;BME280;58108;48.094;11.838;2022-11-18T11:04:56;94017.22;;;5.48;100.00
70559;BME280;58108;48.094;11.838;2022-11-18T11:07:33;94008.66;;;5.36;100.00
70559;BME280;58108;48.094;11.838;2022-11-18T11:12:58;94015.03;;;5.32;100.00
70559;BME280;58108;48.094;11.838;2022-11-18T11:17:53;94017.59;;;5.43;100.00
70559;BME280;58108;48.094;11.838;2022-11-18T11:20:39;94024.25;;;5.36;100.00
70559;BME280;58108;48.094;11.838;2022-11-18T11:23:09;94035.69;;;5.33;100.00
70559;BME280;58108;48.094;11.838;2022-11-18T11:28:30;94024.84;;;5.28;100.00
70559;BME280;58108;48.094;11.838;2022-11-18T11:39:19;94014.06;;;5.44;100.00
70559;BME280;58108;48.094;11.838;2022-11-18T11:44:36;94012.09;;;5.58;100.00
70559;BME280;58108;48.094;11.838;2022-11-18T11:47:31;94025.19;;;5.78;100.00
70559;BME280;58108;48.094;11.838;2022-11-18T11:56:37;94028.28;;;5.71;100.00
70559;BME280;58108;48.094;11.838;2022-11-18T12:04:55;94033.94;;;5.55;100.00
70559;BME280;58108;48.094;11.838;2022-11-18T12:07:29;94039.69;;;5.59;100.00
70559;BME280;58108;48.094;11.838;2022-11-18T12:10:24;94037.41;;;5.66;100.00
70559;BME280;58108;48.094;11.838;2022-11-18T12:13:01;94033.66;;;5.58;100.00
70559;BME280;58108;48.094;11.838;2022-11-18T12:18:11;94042.53;;;5.56;100.00
70559;BME280;58108;48.094;11.838;2022-11-18T12:20:45;94039.31;;;5.64;100.00
70559;BME280;58108;48.094;11.838;2022-11-18T12:23:12;94036.03;;;5.61;100.00
70559;BME280;58108;48.094;11.838;2022-11-18T12:28:40;94040.84;;;5.66;100.00
70559;BME280;58108;48.094;11.838;2022-11-18T12:33:47;94044.50;;;5.64;100.00
70559;BME280;58108;48.094;11.838;2022-11-18T12:36:40;94044.63;;;5.62;100.00
70559;BME280;58108;48.094;11.838;2022-11-18T12:44:34;94051.81;;;5.70;100.00
70559;BME280;58108;48.094;11.838;2022-11-18T12:47:01;94055.72;;;5.64;100.00
70559;BME280;58108;48.094;11.838;2022-11-18T12:51:59;94061.78;;;5.53;100.00
70559;BME280;58108;48.094;11.838;2022-11-18T12:54:31;94065.81;;;5.46;100.00
70559;BME280;58108;48.094;11.838;2022-11-18T12:57:03;94070.31;;;5.44;100.00
70559;BME280;58108;48.094;11.838;2022-11-18T12:59:34;94075.84;;;5.51;100.00
70559;BME280;58108;48.094;11.838;2022-11-18T13:04:34;94078.22;;;5.42;100.00
70559;BME280;58108;48.094;11.838;2022-11-18T13:07:01;94080.88;;;5.31;100.00
70559;BME280;58108;48.094;11.838;2022-11-18T13:09:33;94084.44;;;5.30;100.00
70559;BME280;58108;48.094;11.838;2022-11-18T13:12:03;94086.94;;;5.20;100.00
70559;BME280;58108;48.094;11.838;2022-11-18T13:14:31;94091.75;;;5.25;100.00
70559;BME280;58108;48.094;11.838;2022-11-18T13:17:30;94092.69;;;5.24;100.00
70559;BME280;58108;48.094;11.838;2022-11-18T13:20:25;94090.38;;;5.20;100.00
70559;BME280;58108;48.094;11.838;2022-11-18T13:22:57;94096.38;;;5.21;100.00
70559;BME280;58108;48.094;11.838;2022-11-18T13:25:42;94095.56;;;5.20;100.00
70559;BME280;58108;48.094;11.838;2022-11-18T13:31:04;94090.63;;;5.06;100.00
70559;BME280;58108;48.094;11.838;2022-11-18T13:33:36;94101.00;;;5.06;100.00
70559;BME280;58108;48.094;11.838;2022-11-18T13:36:02;94097.69;;;5.04;100.00
70559;BME280;58108;48.094;11.838;2022-11-18T13:38:27;94111.03;;;4.99;100.00
70559;BME280;58108;48.094;11.838;2022-11-18T13:40:53;94107.16;;;4.93;100.00
70559;BME280;58108;48.094;11.838;2022-11-18T13:43:37;94101.50;;;4.88;100.00
70559;BME280;58108;48.094;11.838;2022-11-18T13:46:06;94112.72;;;4.77;100.00
70559;BME280;58108;48.094;11.838;2022-11-18T13:48:36;94112.34;;;4.82;100.00
70559;BME280;58108;48.094;11.838;2022-11-18T13:51:03;94118.50;;;4.70;100.00
70559;BME280;58108;48.094;11.838;2022-11-18T13:53:34;94110.59;;;4.71;100.00
70559;BME280;58108;48.094;11.838;2022-11-18T13:58:35;94121.53;;;4.75;100.00
70559;BME280;58108;48.094;11.838;2022-11-18T14:01:12;94119.44;;;4.57;100.00
70559;BME280;58108;48.094;11.838;2022-11-18T14:03:54;94120.38;;;4.79;100.00
70559;BME280;58108;48.094;11.838;2022-11-18T14:06:34;94120.50;;;4.77;100.00
70559;BME280;58108;48.094;11.838;2022-11-18T14:09:22;94119.56;;;4.67;100.00
70559;BME280;58108;48.094;11.838;2022-11-18T14:12:02;94119.78;;;4.75;100.00
70559;BME280;58108;48.094;11.838;2022-11-18T14:14:31;94122.88;;;4.81;100.00
70559;BME280;58108;48.094;11.838;2022-11-18T14:17:20;94125.94;;;4.74;100.00
70559;BME280;58108;48.094;11.838;2022-11-18T14:19:47;94129.91;;;4.78;100.00
70559;BME280;58108;48.094;11.838;2022-11-18T14:22:24;94125.31;;;4.82;100.00
70559;BME280;58108;48.094;11.838;2022-11-18T14:28:19;94128.28;;;4.66;100.00
70559;BME280;58108;48.094;11.838;2022-11-18T14:33:27;94135.94;;;4.79;100.00
70559;BME280;58108;48.094;11.838;2022-11-18T14:36:08;94136.88;;;4.78;100.00
70559;BME280;58108;48.094;11.838;2022-11-18T14:41:01;94140.19;;;4.80;100.00
70559;BME280;58108;48.094;11.838;2022-11-18T14:43:28;94140.44;;;4.77;100.00
70559;BME280;58108;48.094;11.838;2022-11-18T14:46:17;94138.78;;;4.76;100.00
70559;BME280;58108;48.094;11.838;2022-11-18T14:48:44;94137.38;;;4.83;100.00
70559;BME280;58108;48.094;11.838;2022-11-18T14:51:13;94142.78;;;4.80;100.00
70559;BME280;58108;48.094;11.838;2022-11-18T14:53:39;94141.47;;;4.86;100.00
70559;BME280;58108;48.094;11.838;2022-11-18T14:56:11;94144.78;;;4.88;100.00